Time;durP1;ratioP1;P1;durP2;ratioP2;P2;SDS_P1;SDS_P2;PMS_P1;PMS_P2;Temp;Humidity;BMP_temperature;BMP_pressure;BME280_temperature;BME280_humidity;BME280_pressure;Samples;Min_cycle;Max_cycle;Signal;HPM_P1;HPM_P2
2022/07/29 00:00:23;;;;;;;;;;;;;;;16.56;56.45;100852.84;5037303;28;2074;-61
2022/07/29 00:02:48;;;;;;;;;;;;;;;16.49;56.87;100852.25;5039398;28;1013;-60
2022/07/29 00:05:14;;;;;;;;;;;;;;;16.46;56.58;100849.25;5038044;28;1450;-61
2022/07/29 00:07:40;;;;;;;;;;;;;;;16.48;56.35;100853.38;5037544;28;1971;-60
2022/07/29 00:10:05;;;;;;;;;;;;;;;16.43;56.67;100840.44;5037097;28;1188;-60
2022/07/29 00:12:31;;;;;;;;;;;;;;;16.88;57.60;100848.22;5035909;28;836;-61
2022/07/29 00:14:56;;;;;;;;;;;;;;;17.49;57.90;100847.38;5044048;28;1021;-60
2022/07/29 00:17:22;;;;;;;;;;;;;;;16.97;58.35;100846.59;5047899;28;990;-60
2022/07/29 00:19:48;;;;;;;;;;;;;;;16.86;57.75;100855.91;5043982;28;1061;-61
2022/07/29 00:22:13;;;;;;;;;;;;;;;16.81;57.47;100858.63;5040318;28;1069;-60
2022/07/29 00:24:39;;;;;;;;;;;;;;;16.70;57.15;100855.88;5045756;28;921;-60
2022/07/29 00:27:04;;;;;;;;;;;;;;;16.70;57.02;100852.31;5045635;28;1970;-61
2022/07/29 00:29:30;;;;;;;;;;;;;;;16.67;56.77;100856.41;5030718;28;1994;-60
2022/07/29 00:31:55;;;;;;;;;;;;;;;16.65;57.00;100849.53;5040323;28;1054;-60
2022/07/29 00:37:05;;;;;;;;;;;;;;;16.61;56.63;100860.25;5039076;28;978;-60
2022/07/29 00:39:30;;;;;;;;;;;;;;;16.54;56.68;100854.22;5042788;28;1148;-60
2022/07/29 00:41:56;;;;;;;;;;;;;;;16.57;56.37;100856.41;5040209;28;994;-61
2022/07/29 00:44:21;;;;;;;;;;;;;;;16.49;56.65;100845.94;5039908;28;1148;-61
2022/07/29 00:46:46;;;;;;;;;;;;;;;16.54;56.40;100856.97;5026548;28;1902;-60
2022/07/29 00:49:12;;;;;;;;;;;;;;;16.49;56.46;100854.19;5045284;28;1139;-60
2022/07/29 00:51:38;;;;;;;;;;;;;;;16.46;56.51;100844.56;5031394;28;1038;-61
2022/07/29 00:54:03;;;;;;;;;;;;;;;16.41;56.71;100848.13;5043446;28;1241;-61
2022/07/29 00:56:32;;;;;;;;;;;;;;;16.41;56.39;100842.66;5028015;28;1172;-60
2022/07/29 00:58:57;;;;;;;;;;;;;;;16.38;56.32;100836.88;5041669;28;1002;-60
2022/07/29 01:01:23;;;;;;;;;;;;;;;16.38;56.28;100842.34;5041756;28;1972;-61
2022/07/29 01:03:48;;;;;;;;;;;;;;;16.35;56.55;100851.94;5040814;28;1014;-60
2022/07/29 01:06:14;;;;;;;;;;;;;;;16.38;56.75;100859.66;5040133;28;1906;-62
2022/07/29 01:08:40;;;;;;;;;;;;;;;17.57;57.53;100854.22;5027704;28;954;-60
2022/07/29 01:11:05;;;;;;;;;;;;;;;16.97;58.03;100856.75;5044639;28;946;-60
2022/07/29 01:13:31;;;;;;;;;;;;;;;16.77;57.93;100850.09;5049085;28;982;-60
2022/07/29 01:15:57;;;;;;;;;;;;;;;16.67;57.53;100844.63;5044437;28;1037;-60
2022/07/29 01:18:33;;;;;;;;;;;;;;;16.63;57.21;100840.75;5045821;28;978;-59
2022/07/29 01:21:05;;;;;;;;;;;;;;;16.56;57.04;100841.03;5044204;28;1069;-59
2022/07/29 01:23:30;;;;;;;;;;;;;;;16.57;56.95;100837.19;5021037;28;1007;-60
2022/07/29 01:25:58;;;;;;;;;;;;;;;16.50;56.74;100834.69;5047965;28;1191;-59
2022/07/29 01:28:43;;;;;;;;;;;;;;;16.46;56.71;100833.59;5042582;28;1906;-59
2022/07/29 01:31:08;;;;;;;;;;;;;;;16.51;56.23;100833.63;5046213;28;1247;-59
2022/07/29 01:33:50;;;;;;;;;;;;;;;16.42;56.74;100830.59;5041807;28;1115;-59
2022/07/29 01:36:17;;;;;;;;;;;;;;;16.46;56.37;100835.53;5025145;28;1236;-60
2022/07/29 01:38:42;;;;;;;;;;;;;;;16.45;56.46;100840.16;5040335;28;1018;-60
2022/07/29 01:41:09;;;;;;;;;;;;;;;16.39;56.49;100835.78;5022370;28;1133;-59
2022/07/29 01:43:40;;;;;;;;;;;;;;;16.32;56.64;100830.53;5038023;28;1096;-60
2022/07/29 01:46:06;;;;;;;;;;;;;;;16.34;56.52;100833.84;5029774;28;931;-60
2022/07/29 01:48:34;;;;;;;;;;;;;;;16.39;56.02;100830.28;5028997;28;1969;-60
2022/07/29 01:51:00;;;;;;;;;;;;;;;16.31;56.34;100836.31;5026570;28;1003;-60
2022/07/29 01:53:26;;;;;;;;;;;;;;;16.25;56.52;100822.56;5045405;28;1213;-60
2022/07/29 01:55:52;;;;;;;;;;;;;;;16.99;57.44;100816.91;5023960;28;986;-59
2022/07/29 01:58:17;;;;;;;;;;;;;;;17.29;57.81;100820.72;5043272;28;1203;-60
2022/07/29 02:00:43;;;;;;;;;;;;;;;16.91;58.00;100818.31;5021965;28;927;-60
2022/07/29 02:03:09;;;;;;;;;;;;;;;16.79;57.66;100825.97;5022614;28;1129;-60
2022/07/29 02:05:34;;;;;;;;;;;;;;;16.73;57.34;100825.13;5037858;28;982;-59
2022/07/29 02:08:00;;;;;;;;;;;;;;;16.65;56.94;100824.81;5038444;28;1902;-59
2022/07/29 02:10:26;;;;;;;;;;;;;;;16.57;57.09;100829.75;5049161;28;978;-59
2022/07/29 02:12:52;;;;;;;;;;;;;;;16.57;56.88;100828.94;5025078;28;882;-60
2022/07/29 02:15:17;;;;;;;;;;;;;;;16.50;56.82;100826.47;5042187;28;921;-60
2022/07/29 02:17:45;;;;;;;;;;;;;;;16.51;56.65;100821.78;5041769;28;1041;-60
2022/07/29 02:20:11;;;;;;;;;;;;;;;16.43;56.85;100818.50;5040494;28;1167;-60
2022/07/29 02:22:37;;;;;;;;;;;;;;;16.42;56.64;100819.59;5025500;28;1160;-60
2022/07/29 02:25:02;;;;;;;;;;;;;;;16.43;56.43;100810.25;5042099;28;960;-60
2022/07/29 02:27:28;;;;;;;;;;;;;;;16.42;56.47;100810.53;5027253;28;1906;-59
2022/07/29 02:29:53;;;;;;;;;;;;;;;16.38;56.37;100813.00;5023162;28;1014;-59
2022/07/29 02:32:19;;;;;;;;;;;;;;;16.39;56.22;100813.81;5023319;28;1088;-60
2022/07/29 02:34:44;;;;;;;;;;;;;;;16.38;56.50;100815.75;5021968;28;987;-60
2022/07/29 02:37:10;;;;;;;;;;;;;;;16.41;56.83;100822.59;5037915;28;907;-60
2022/07/29 02:39:35;;;;;;;;;;;;;;;17.53;57.58;100822.88;5037563;28;1136;-59
2022/07/29 02:42:01;;;;;;;;;;;;;;;16.98;58.01;100826.25;5025797;28;1026;-59
2022/07/29 02:44:27;;;;;;;;;;;;;;;16.81;57.70;100831.19;5046327;28;978;-59
2022/07/29 02:47:01;;;;;;;;;;;;;;;16.71;57.54;100837.47;5044123;28;1901;-59
2022/07/29 02:49:45;;;;;;;;;;;;;;;16.64;57.26;100836.94;5025785;28;962;-58
2022/07/29 02:52:11;;;;;;;;;;;;;;;16.56;57.10;100830.88;5040539;28;1053;-59
2022/07/29 02:54:36;;;;;;;;;;;;;;;16.57;56.86;100832.50;5042292;28;1125;-59
2022/07/29 02:57:03;;;;;;;;;;;;;;;16.50;56.54;100833.88;5037115;28;1160;-60
2022/07/29 02:59:29;;;;;;;;;;;;;;;16.43;56.80;100832.22;5034096;28;1156;-59
2022/07/29 03:01:55;;;;;;;;;;;;;;;16.42;56.50;100827.84;5019582;28;1030;-59
2022/07/29 03:04:20;;;;;;;;;;;;;;;16.48;56.44;100830.56;5019154;28;1057;-59
2022/07/29 03:06:46;;;;;;;;;;;;;;;16.42;56.49;100832.47;5047641;28;1902;-59
2022/07/29 03:09:11;;;;;;;;;;;;;;;16.37;56.55;100833.31;5042685;28;1025;-60
2022/07/29 03:11:37;;;;;;;;;;;;;;;16.37;56.29;100837.97;5041303;28;1279;-60
2022/07/29 03:14:02;;;;;;;;;;;;;;;16.34;56.38;100846.72;5023322;28;1006;-60
2022/07/29 03:16:27;;;;;;;;;;;;;;;16.60;57.01;100853.09;5023018;28;1006;-60
2022/07/29 03:18:53;;;;;;;;;;;;;;;17.53;57.57;100851.22;5038215;28;1069;-56
2022/07/29 03:21:18;;;;;;;;;;;;;;;16.96;58.08;100857.84;5041101;28;1069;-56
2022/07/29 03:23:45;;;;;;;;;;;;;;;16.79;57.64;100858.06;5036872;28;1101;-56
2022/07/29 03:26:10;;;;;;;;;;;;;;;16.69;57.49;100861.63;5039624;28;970;-56
2022/07/29 03:28:36;;;;;;;;;;;;;;;16.64;57.27;100858.91;5038991;28;1918;-55
2022/07/29 03:31:01;;;;;;;;;;;;;;;16.57;56.97;100864.63;5038108;28;1204;-59
2022/07/29 03:33:28;;;;;;;;;;;;;;;16.57;56.81;100861.91;5038087;28;1134;-57
2022/07/29 03:35:54;;;;;;;;;;;;;;;16.55;56.60;100864.91;5038008;28;1045;-59
2022/07/29 03:38:19;;;;;;;;;;;;;;;16.51;56.67;100860.22;5019125;28;1041;-59
2022/07/29 03:40:52;;;;;;;;;;;;;;;16.41;56.75;100870.09;5025110;28;967;-59
2022/07/29 03:43:18;;;;;;;;;;;;;;;16.43;56.57;100869.81;5023598;28;1128;-59
2022/07/29 03:45:44;;;;;;;;;;;;;;;16.41;56.49;100875.59;5037381;28;1179;-63
2022/07/29 03:48:10;;;;;;;;;;;;;;;16.40;56.55;100879.41;5022218;28;2134;-62
2022/07/29 03:50:35;;;;;;;;;;;;;;;16.38;56.64;100876.13;5043616;28;1140;-62
2022/07/29 03:53:01;;;;;;;;;;;;;;;17.26;57.43;100876.25;5043298;28;1132;-65
2022/07/29 03:55:26;;;;;;;;;;;;;;;17.22;58.07;100869.66;5025828;28;1105;-65
2022/07/29 03:57:52;;;;;;;;;;;;;;;16.98;58.48;100877.63;5040351;28;986;-63
2022/07/29 04:00:17;;;;;;;;;;;;;;;16.90;58.45;100877.09;5039824;28;1113;-66
2022/07/29 04:02:47;;;;;;;;;;;;;;;16.81;57.91;100869.63;5040181;28;962;-63
2022/07/29 04:05:13;;;;;;;;;;;;;;;16.76;57.68;100868.53;5040686;28;1038;-64
2022/07/29 04:07:39;;;;;;;;;;;;;;;16.70;57.48;100869.59;5044677;28;1902;-60
2022/07/29 04:10:05;;;;;;;;;;;;;;;16.67;57.15;100872.88;5045076;28;1001;-60
2022/07/29 04:12:30;;;;;;;;;;;;;;;16.61;57.19;100873.97;5040330;28;1176;-61
2022/07/29 04:14:56;;;;;;;;;;;;;;;16.61;56.93;100865.75;5040464;28;1084;-61
2022/07/29 04:17:21;;;;;;;;;;;;;;;16.57;56.94;100870.13;5039607;28;1104;-64
2022/07/29 04:19:46;;;;;;;;;;;;;;;16.51;57.02;100871.19;5039323;28;2655;-61
2022/07/29 04:22:12;;;;;;;;;;;;;;;16.51;57.16;100866.56;5043641;28;1076;-60
2022/07/29 04:24:37;;;;;;;;;;;;;;;16.48;56.87;100875.34;5039940;28;1053;-61
2022/07/29 04:27:03;;;;;;;;;;;;;;;16.48;57.05;100871.75;5039823;28;1993;-62
2022/07/29 04:29:28;;;;;;;;;;;;;;;16.43;57.13;100875.31;5039715;28;1112;-58
2022/07/29 04:31:54;;;;;;;;;;;;;;;16.47;56.77;100873.69;5039848;28;1045;-64
2022/07/29 04:34:19;;;;;;;;;;;;;;;16.43;56.99;100875.31;5039553;28;1156;-61
2022/07/29 04:36:45;;;;;;;;;;;;;;;16.46;57.19;100876.69;5039228;28;1394;-56
2022/07/29 04:39:10;;;;;;;;;;;;;;;17.52;58.06;100870.75;5040794;28;982;-60
2022/07/29 04:41:36;;;;;;;;;;;;;;;17.02;58.56;100873.25;5047779;28;966;-59
2022/07/29 04:44:04;;;;;;;;;;;;;;;16.82;58.26;100868.53;5039377;28;998;-59
2022/07/29 04:46:30;;;;;;;;;;;;;;;16.74;58.19;100870.69;5036038;28;1910;-57
2022/07/29 04:48:55;;;;;;;;;;;;;;;16.70;57.62;100875.09;5038846;28;1971;-56
2022/07/29 04:51:21;;;;;;;;;;;;;;;16.68;57.50;100869.06;5038974;28;1073;-58
2022/07/29 04:53:46;;;;;;;;;;;;;;;16.58;57.38;100861.63;5038962;28;1308;-58
2022/07/29 04:56:11;;;;;;;;;;;;;;;16.55;57.32;100858.59;5039247;28;1121;-59
2022/07/29 04:58:37;;;;;;;;;;;;;;;16.53;57.09;100863.53;5039238;28;1049;-58
2022/07/29 05:01:03;;;;;;;;;;;;;;;16.51;57.13;100861.06;5039099;28;966;-59
2022/07/29 05:03:28;;;;;;;;;;;;;;;16.52;57.02;100857.22;5038604;28;1148;-58
2022/07/29 05:05:54;;;;;;;;;;;;;;;16.48;57.37;100858.03;5043443;28;1017;-59
2022/07/29 05:08:19;;;;;;;;;;;;;;;16.47;57.25;100859.94;5038938;28;1905;-58
2022/07/29 05:10:45;;;;;;;;;;;;;;;16.47;57.10;100853.66;5039087;28;1065;-58
2022/07/29 05:13:10;;;;;;;;;;;;;;;16.45;56.97;100855.81;5033190;28;1053;-59
2022/07/29 05:15:36;;;;;;;;;;;;;;;16.43;57.14;100854.16;5039140;28;1049;-59
2022/07/29 05:18:01;;;;;;;;;;;;;;;16.40;57.05;100859.38;5038571;28;2515;-57
2022/07/29 05:20:28;;;;;;;;;;;;;;;16.39;57.25;100853.06;5025283;28;1199;-57
2022/07/29 05:22:57;;;;;;;;;;;;;;;16.39;57.09;100864.03;5039821;28;1029;-58
2022/07/29 05:25:23;;;;;;;;;;;;;;;16.36;57.20;100853.59;5039540;28;1029;-58
2022/07/29 05:27:48;;;;;;;;;;;;;;;16.34;57.26;100861.28;5038788;28;1910;-58
2022/07/29 05:30:14;;;;;;;;;;;;;;;16.33;57.17;100854.16;5038312;28;994;-58
2022/07/29 05:32:39;;;;;;;;;;;;;;;16.35;57.05;100857.44;5038326;28;966;-58
2022/07/29 05:35:05;;;;;;;;;;;;;;;16.32;56.79;100852.50;5038953;28;1089;-56
2022/07/29 05:37:30;;;;;;;;;;;;;;;16.29;57.31;100853.03;5038234;28;981;-57
2022/07/29 05:39:56;;;;;;;;;;;;;;;16.33;56.82;100856.91;5037879;28;1013;-57
2022/07/29 05:42:21;;;;;;;;;;;;;;;17.39;57.64;100856.47;5038179;28;1009;-59
2022/07/29 05:44:47;;;;;;;;;;;;;;;17.04;58.54;100857.28;5038713;28;1085;-60
2022/07/29 05:47:12;;;;;;;;;;;;;;;16.84;58.38;100855.34;5037778;28;1914;-59
2022/07/29 05:49:38;;;;;;;;;;;;;;;17.21;58.00;100835.06;5037094;28;1132;-58
2022/07/29 05:52:04;;;;;;;;;;;;;;;18.84;53.56;100847.59;5038227;28;1006;-60
2022/07/29 05:54:29;;;;;;;;;;;;;;;14.81;65.55;100857.28;5037529;28;1355;-58
2022/07/29 05:56:55;;;;;;;;;;;;;;;18.35;55.68;100858.34;5038153;28;1030;-58
2022/07/29 05:59:20;;;;;;;;;;;;;;;16.86;58.74;100866.91;5038133;28;966;-59
2022/07/29 06:01:46;;;;;;;;;;;;;;;16.51;62.03;100857.47;5032623;28;1238;-59
2022/07/29 06:04:11;;;;;;;;;;;;;;;19.10;54.54;100851.81;5038038;28;1005;-57
2022/07/29 06:06:37;;;;;;;;;;;;;;;15.22;63.06;100857.66;5037627;28;1893;-58
2022/07/29 06:09:02;;;;;;;;;;;;;;;17.75;59.21;100858.31;5037850;28;1124;-57
2022/07/29 06:11:28;;;;;;;;;;;;;;;17.92;57.48;100861.59;5033724;28;1183;-58
2022/07/29 06:13:53;;;;;;;;;;;;;;;15.77;61.80;100870.31;5036574;28;858;-58
2022/07/29 06:16:19;;;;;;;;;;;;;;;17.88;58.38;100865.97;5039238;28;1097;-56
2022/07/29 06:18:44;;;;;;;;;;;;;;;15.45;63.29;100865.75;5038243;28;1053;-57
2022/07/29 06:21:10;;;;;;;;;;;;;;;17.88;59.83;100870.63;5037697;28;1033;-58
2022/07/29 06:23:38;;;;;;;;;;;;;;;19.18;55.42;100868.84;5039070;28;1057;-59
2022/07/29 06:26:04;;;;;;;;;;;;;;;15.05;65.13;100867.91;5037884;28;1188;-59
2022/07/29 06:28:29;;;;;;;;;;;;;;;18.28;58.92;100866.09;5037735;28;2000;-59
2022/07/29 06:30:54;;;;;;;;;;;;;;;16.12;62.77;100860.66;5047380;28;1025;-59
2022/07/29 06:33:20;;;;;;;;;;;;;;;17.09;62.27;100849.88;5045289;28;1037;-58
2022/07/29 06:35:47;;;;;;;;;;;;;;;19.30;56.23;100850.81;5043640;28;982;-59
2022/07/29 06:38:13;;;;;;;;;;;;;;;15.18;65.14;100861.16;5039616;28;834;-58
2022/07/29 06:41:07;;;;;;;;;;;;;;;18.48;59.32;100862.41;5040923;28;1057;-60
2022/07/29 06:43:37;;;;;;;;;;;;;;;16.17;63.01;100863.41;5033859;28;1045;-61
2022/07/29 06:46:05;;;;;;;;;;;;;;;16.35;61.65;100864.84;5040188;28;1226;-61
2022/07/29 06:48:30;;;;;;;;;;;;;;;18.30;58.94;100856.47;5037830;28;1977;-58
2022/07/29 06:50:56;;;;;;;;;;;;;;;15.23;65.59;100855.72;5036895;28;1219;-59
2022/07/29 06:53:21;;;;;;;;;;;;;;;17.79;60.67;100862.13;5042889;28;1180;-59
2022/07/29 06:55:47;;;;;;;;;;;;;;;16.02;63.79;100848.56;5037153;28;942;-59
2022/07/29 06:58:15;;;;;;;;;;;;;;;16.77;63.31;100848.22;5046779;28;1049;-59
2022/07/29 07:00:41;;;;;;;;;;;;;;;18.95;58.61;100851.94;5040721;28;974;-63
2022/07/29 07:03:06;;;;;;;;;;;;;;;15.13;66.21;100847.44;5041689;28;1026;-59
2022/07/29 07:05:32;;;;;;;;;;;;;;;18.37;60.98;100850.66;5040484;28;993;-59
2022/07/29 07:07:57;;;;;;;;;;;;;;;16.97;62.81;100835.63;5039508;28;1926;-58
2022/07/29 07:10:23;;;;;;;;;;;;;;;15.71;64.60;100842.91;5039279;28;1005;-63
2022/07/29 07:12:48;;;;;;;;;;;;;;;17.03;57.01;100845.50;5036351;28;1025;-58
2022/07/29 07:15:13;;;;;;;;;;;;;;;17.27;54.77;100845.75;5035813;28;1041;-60
2022/07/29 07:17:39;;;;;;;;;;;;;;;17.22;53.69;100844.94;5036640;28;1294;-61
2022/07/29 07:20:05;;;;;;;;;;;;;;;17.29;52.80;100848.22;5036780;28;994;-60
2022/07/29 07:22:30;;;;;;;;;;;;;;;17.30;52.07;100847.13;5037469;28;1108;-59
2022/07/29 07:24:56;;;;;;;;;;;;;;;18.38;55.24;100852.28;5036438;28;1112;-57
2022/07/29 07:27:21;;;;;;;;;;;;;;;15.10;65.13;100859.75;5037403;28;1915;-58
2022/07/29 07:29:47;;;;;;;;;;;;;;;18.30;59.53;100847.41;5041434;28;1069;-58
2022/07/29 07:32:13;;;;;;;;;;;;;;;17.48;62.28;100851.22;5041521;28;978;-58
2022/07/29 07:34:38;;;;;;;;;;;;;;;15.25;66.91;100856.31;5044776;28;1014;-57
2022/07/29 07:37:04;;;;;;;;;;;;;;;16.96;57.67;100855.94;5039689;28;1061;-59
2022/07/29 07:39:29;;;;;;;;;;;;;;;17.28;54.88;100852.09;5041552;28;1125;-57
2022/07/29 07:41:55;;;;;;;;;;;;;;;17.25;53.64;100855.34;5035612;28;927;-59
2022/07/29 07:44:20;;;;;;;;;;;;;;;17.29;52.86;100861.94;5046298;28;918;-58
2022/07/29 07:46:46;;;;;;;;;;;;;;;17.35;52.01;100868.28;5040032;28;1988;-56
2022/07/29 07:49:11;;;;;;;;;;;;;;;17.31;51.62;100861.69;5042534;28;1156;-56
2022/07/29 07:51:36;;;;;;;;;;;;;;;17.37;51.28;100863.34;5038730;28;1042;-57
2022/07/29 07:54:02;;;;;;;;;;;;;;;17.82;52.63;100861.56;5039816;28;1175;-58
2022/07/29 07:56:27;;;;;;;;;;;;;;;15.78;62.18;100861.00;5037359;28;982;-58
2022/07/29 07:58:53;;;;;;;;;;;;;;;17.44;59.68;100855.63;5036403;28;1026;-59
2022/07/29 08:01:20;;;;;;;;;;;;;;;18.91;58.49;100865.47;5041849;28;1136;-60
2022/07/29 08:03:46;;;;;;;;;;;;;;;15.18;65.74;100861.16;5042207;28;1022;-53
2022/07/29 08:06:11;;;;;;;;;;;;;;;16.74;59.38;100859.72;5040737;28;1065;-60
2022/07/29 08:08:37;;;;;;;;;;;;;;;17.23;55.19;100857.56;5041744;28;1979;-58
2022/07/29 08:11:03;;;;;;;;;;;;;;;17.37;53.34;100869.66;5040600;28;1002;-58
2022/07/29 08:13:29;;;;;;;;;;;;;;;18.29;56.39;100867.75;5042723;28;1084;-57
2022/07/29 08:15:59;;;;;;;;;;;;;;;15.23;63.70;100863.94;5041637;28;958;-57
2022/07/29 08:18:25;;;;;;;;;;;;;;;18.26;59.10;100866.41;5039616;28;986;-59
2022/07/29 08:20:51;;;;;;;;;;;;;;;16.50;63.48;100866.81;5037067;28;1179;-59
2022/07/29 08:23:16;;;;;;;;;;;;;;;15.97;63.30;100875.94;5035959;28;1009;-59
2022/07/29 08:25:41;;;;;;;;;;;;;;;17.13;56.15;100868.59;5044899;28;1065;-58
2022/07/29 08:28:07;;;;;;;;;;;;;;;17.80;59.22;100863.78;5043200;28;1902;-57
2022/07/29 08:30:32;;;;;;;;;;;;;;;15.83;64.99;100863.81;5040964;28;990;-57
2022/07/29 08:32:58;;;;;;;;;;;;;;;18.73;59.71;100866.97;5040937;28;1026;-56
2022/07/29 08:35:23;;;;;;;;;;;;;;;16.40;64.59;100867.63;5039003;28;1061;-58
2022/07/29 08:37:49;;;;;;;;;;;;;;;15.85;64.50;100856.13;5042680;28;1113;-56
2022/07/29 08:40:14;;;;;;;;;;;;;;;17.06;57.01;100855.91;5041213;28;868;-56
2022/07/29 08:42:40;;;;;;;;;;;;;;;17.30;54.62;100858.13;5041468;28;1176;-58
2022/07/29 08:45:06;;;;;;;;;;;;;;;17.29;53.39;100856.47;5039377;28;1069;-58
2022/07/29 08:47:31;;;;;;;;;;;;;;;17.39;52.60;100859.22;5027452;28;1985;-58
2022/07/29 08:49:56;;;;;;;;;;;;;;;17.40;51.80;100847.13;5027117;28;1053;-59
2022/07/29 08:52:24;;;;;;;;;;;;;;;18.14;54.37;100852.13;5044020;28;845;-58
2022/07/29 08:54:49;;;;;;;;;;;;;;;15.06;63.49;100847.66;5029460;28;1184;-59
2022/07/29 08:57:14;;;;;;;;;;;;;;;18.02;59.30;100835.97;5042377;28;1041;-59
2022/07/29 08:59:40;;;;;;;;;;;;;;;17.68;61.63;100825.59;5021055;28;970;-58
2022/07/29 09:02:06;;;;;;;;;;;;;;;15.28;67.10;100839.34;5023000;28;993;-57
2022/07/29 09:04:32;;;;;;;;;;;;;;;17.00;57.95;100835.06;5022602;28;951;-60
2022/07/29 09:06:57;;;;;;;;;;;;;;;17.33;55.10;100841.06;5021918;28;1981;-57
2022/07/29 09:09:23;;;;;;;;;;;;;;;17.42;53.25;100831.16;5021128;28;1074;-54
2022/07/29 09:11:48;;;;;;;;;;;;;;;17.39;52.72;100831.72;5049653;28;1041;-53
2022/07/29 09:14:14;;;;;;;;;;;;;;;17.37;52.04;100838.59;5042122;28;1109;-56
2022/07/29 09:16:49;;;;;;;;;;;;;;;17.41;51.45;100828.69;5039944;28;923;-57
2022/07/29 09:19:25;;;;;;;;;;;;;;;17.49;51.14;100827.28;5038844;28;1152;-56
2022/07/29 09:22:02;;;;;;;;;;;;;;;17.41;51.02;100821.25;5041518;28;1018;-60
2022/07/29 09:24:34;;;;;;;;;;;;;;;17.39;51.00;100814.38;5038420;28;1133;-57
2022/07/29 09:27:00;;;;;;;;;;;;;;;17.51;50.49;100812.16;5035612;28;1897;-57
2022/07/29 09:29:25;;;;;;;;;;;;;;;17.47;50.26;100813.00;5041687;28;1224;-57
2022/07/29 09:31:51;;;;;;;;;;;;;;;17.58;49.79;100817.38;5041812;28;1085;-57
2022/07/29 09:34:21;;;;;;;;;;;;;;;17.44;49.99;100808.88;5043211;28;1168;-57
2022/07/29 09:36:47;;;;;;;;;;;;;;;17.48;49.83;100817.41;5040198;28;986;-59
2022/07/29 09:39:12;;;;;;;;;;;;;;;16.53;58.09;100820.44;5040563;28;1177;-57
2022/07/29 09:41:52;;;;;;;;;;;;;;;16.76;59.17;100824.59;5038752;28;986;-57
2022/07/29 09:44:18;;;;;;;;;;;;;;;19.15;56.05;100807.69;5038855;28;1006;-60
2022/07/29 09:47:05;;;;;;;;;;;;;;;15.47;64.53;100811.50;5049419;28;1898;-60
2022/07/29 09:49:30;;;;;;;;;;;;;;;17.07;60.13;100808.13;5043096;28;958;-60
2022/07/29 09:52:06;;;;;;;;;;;;;;;16.36;63.59;100812.44;5042379;28;840;-61
2022/07/29 09:54:38;;;;;;;;;;;;;;;16.88;63.65;100816.09;5041379;28;1175;-58
2022/07/29 09:57:09;;;;;;;;;;;;;;;19.22;58.12;100804.56;5021263;28;1137;-58
2022/07/29 09:59:34;;;;;;;;;;;;;;;15.29;65.79;100824.56;5039257;28;1117;-58
2022/07/29 10:02:00;;;;;;;;;;;;;;;16.72;59.72;100815.25;5038182;28;958;-58
2022/07/29 10:04:38;;;;;;;;;;;;;;;17.30;55.67;100805.91;5045462;28;982;-58
2022/07/29 10:07:04;;;;;;;;;;;;;;;17.45;53.67;100807.78;5026295;28;1902;-59
2022/07/29 10:09:30;;;;;;;;;;;;;;;17.43;52.69;100799.84;5046947;28;990;-58
2022/07/29 10:12:08;;;;;;;;;;;;;;;17.47;52.12;100799.28;5043224;28;987;-59
2022/07/29 10:14:34;;;;;;;;;;;;;;;17.55;51.37;100820.69;5042282;28;1593;-59
2022/07/29 10:17:00;;;;;;;;;;;;;;;17.50;51.18;100812.44;5040644;28;1078;-59
2022/07/29 10:19:26;;;;;;;;;;;;;;;17.49;51.00;100814.38;5038450;28;1045;-59
2022/07/29 10:21:52;;;;;;;;;;;;;;;17.47;51.04;100796.53;5038237;28;970;-58
2022/07/29 10:24:17;;;;;;;;;;;;;;;17.53;50.59;100811.88;5042992;28;1144;-58
2022/07/29 10:26:42;;;;;;;;;;;;;;;17.51;50.35;100806.66;5027291;28;1964;-59
2022/07/29 10:29:08;;;;;;;;;;;;;;;17.50;50.31;100810.53;5046119;28;904;-59
2022/07/29 10:31:40;;;;;;;;;;;;;;;17.54;49.79;100806.09;5021000;28;1129;-57
2022/07/29 10:34:32;;;;;;;;;;;;;;;17.51;50.13;100801.16;5038076;28;1041;-59
2022/07/29 10:37:18;;;;;;;;;;;;;;;17.62;49.83;100796.47;5016501;28;1227;-56
2022/07/29 10:39:43;;;;;;;;;;;;;;;17.56;49.67;100789.34;5023838;28;1113;-58
2022/07/29 10:42:12;;;;;;;;;;;;;;;17.53;49.82;100798.97;5033678;28;1094;-59
2022/07/29 10:44:39;;;;;;;;;;;;;;;17.59;49.73;100797.03;5036673;28;1235;-60
2022/07/29 10:47:04;;;;;;;;;;;;;;;16.05;59.93;100806.88;5040596;28;1971;-56
2022/07/29 10:49:30;;;;;;;;;;;;;;;16.96;59.15;100808.41;5042875;28;1248;-59
2022/07/29 10:51:56;;;;;;;;;;;;;;;18.90;57.17;100802.38;5039435;28;993;-59
2022/07/29 10:54:28;;;;;;;;;;;;;;;15.40;64.92;100817.22;5040720;28;1235;-58
2022/07/29 10:56:53;;;;;;;;;;;;;;;17.27;61.20;100811.94;5037646;28;1073;-59
2022/07/29 10:59:26;;;;;;;;;;;;;;;16.55;64.18;100814.66;5019693;28;1196;-58
2022/07/29 11:01:51;;;;;;;;;;;;;;;15.75;64.86;100799.31;5042461;28;989;-58
2022/07/29 11:04:35;;;;;;;;;;;;;;;17.08;57.04;100798.78;5034551;28;1239;-57
2022/07/29 11:07:04;;;;;;;;;;;;;;;17.34;54.19;100800.69;5040154;28;1910;-57
2022/07/29 11:09:30;;;;;;;;;;;;;;;17.37;52.95;100806.44;5042866;28;1013;-56
2022/07/29 11:11:56;;;;;;;;;;;;;;;17.44;51.84;100795.97;5037311;28;1212;-56
2022/07/29 11:14:40;;;;;;;;;;;;;;;17.47;51.50;100804.75;5021896;28;1109;-57
2022/07/29 11:17:06;;;;;;;;;;;;;;;17.53;50.98;100798.13;5034283;28;1292;-57
2022/07/29 11:19:32;;;;;;;;;;;;;;;17.54;50.75;100800.59;5036290;28;1045;-57
2022/07/29 11:21:58;;;;;;;;;;;;;;;17.59;50.39;100806.09;5037553;28;1080;-59
2022/07/29 11:24:27;;;;;;;;;;;;;;;17.56;50.24;100792.09;5033527;28;1263;-59
2022/07/29 11:27:11;;;;;;;;;;;;;;;17.52;50.36;100786.34;5035763;28;1985;-58
2022/07/29 11:29:41;;;;;;;;;;;;;;;17.56;49.88;100795.66;5040780;28;1157;-58
2022/07/29 11:32:10;;;;;;;;;;;;;;;17.61;49.58;100783.81;5039345;28;985;-58
2022/07/29 11:34:36;;;;;;;;;;;;;;;17.50;49.99;100784.97;5037881;28;1121;-57
2022/07/29 11:37:12;;;;;;;;;;;;;;;17.63;49.67;100778.88;5015499;28;1456;-60
2022/07/29 11:39:38;;;;;;;;;;;;;;;17.61;49.58;100789.31;5038706;28;1096;-58
2022/07/29 11:42:19;;;;;;;;;;;;;;;17.62;49.41;100785.47;5030993;28;1359;-57
2022/07/29 11:44:53;;;;;;;;;;;;;;;17.62;49.19;100785.47;5037861;28;1057;-58
2022/07/29 11:47:19;;;;;;;;;;;;;;;17.62;49.16;100783.53;5035350;28;1910;-58
2022/07/29 11:49:45;;;;;;;;;;;;;;;17.53;49.10;100781.66;5035493;28;1061;-59
2022/07/29 11:52:10;;;;;;;;;;;;;;;15.49;60.47;100790.16;5028090;28;1022;-59
2022/07/29 11:54:36;;;;;;;;;;;;;;;17.78;55.26;100778.81;5036223;28;1462;-56
2022/07/29 11:57:02;;;;;;;;;;;;;;;15.61;59.26;100782.53;5016811;28;1022;-56
2022/07/29 11:59:27;;;;;;;;;;;;;;;17.43;57.79;100777.84;5034147;28;1227;-56
2022/07/29 12:01:56;;;;;;;;;;;;;;;17.78;55.61;100770.56;5017246;28;1173;-56
2022/07/29 12:04:23;;;;;;;;;;;;;;;15.56;64.06;100768.81;5033462;28;1281;-56
2022/07/29 12:06:57;;;;;;;;;;;;;;;18.23;57.13;100761.53;5023040;28;1984;-56
2022/07/29 12:09:26;;;;;;;;;;;;;;;15.99;60.44;100765.97;5020980;28;962;-56
2022/07/29 12:11:57;;;;;;;;;;;;;;;17.37;60.03;100756.13;5033904;28;1078;-56
2022/07/29 12:14:29;;;;;;;;;;;;;;;17.90;56.60;100758.41;5041825;28;982;-56
2022/07/29 12:16:55;;;;;;;;;;;;;;;15.51;64.48;100766.03;5042048;28;958;-56
2022/07/29 12:19:20;;;;;;;;;;;;;;;18.24;58.14;100760.44;5039754;28;1466;-59
2022/07/29 12:21:46;;;;;;;;;;;;;;;16.09;61.16;100760.53;5039939;28;1513;-58
2022/07/29 12:24:11;;;;;;;;;;;;;;;17.34;61.97;100753.94;5043042;28;954;-58
2022/07/29 12:26:48;;;;;;;;;;;;;;;18.09;57.72;100745.66;5046203;28;1977;-58
2022/07/29 12:29:17;;;;;;;;;;;;;;;14.91;64.67;100749.78;5047908;28;1054;-58
2022/07/29 12:31:43;;;;;;;;;;;;;;;18.28;58.88;100737.56;5035649;28;1073;-57
2022/07/29 12:34:09;;;;;;;;;;;;;;;16.20;61.57;100743.00;5049880;28;1081;-57
2022/07/29 12:36:34;;;;;;;;;;;;;;;16.58;60.28;100740.03;5046167;28;982;-57
2022/07/29 12:38:59;;;;;;;;;;;;;;;18.11;57.82;100735.19;5047780;28;954;-59
2022/07/29 12:41:27;;;;;;;;;;;;;;;14.99;63.84;100735.59;5022537;28;884;-59
2022/07/29 12:43:55;;;;;;;;;;;;;;;16.92;56.99;100744.97;5026025;28;1010;-59
2022/07/29 12:46:21;;;;;;;;;;;;;;;17.35;53.84;100737.19;5043629;28;978;-59
2022/07/29 12:48:49;;;;;;;;;;;;;;;17.38;52.67;100738.56;5041446;28;1981;-56
2022/07/29 12:51:16;;;;;;;;;;;;;;;17.42;51.99;100732.19;5038975;28;970;-58